createdAt,value
2023-02-22T00:00:22.762Z,19.17
2023-02-22T00:02:51.030Z,17.27
2023-02-22T00:05:20.051Z,17.30
2023-02-22T00:07:49.690Z,17.13
2023-02-22T00:10:20.415Z,16.07
2023-02-22T00:12:48.970Z,16.33
2023-02-22T00:15:17.218Z,16.33
2023-02-22T00:17:44.914Z,16.87
2023-02-22T00:20:14.055Z,17.73
2023-02-22T00:22:42.354Z,17.93
2023-02-22T00:25:11.794Z,17.53
2023-02-22T00:30:19.012Z,16.67
2023-02-22T00:32:47.062Z,17.00
2023-02-22T00:35:14.922Z,17.33
2023-02-22T00:37:42.860Z,17.97
2023-02-22T00:40:12.753Z,18.60
2023-02-22T00:42:40.731Z,16.60
2023-02-22T00:45:10.235Z,16.67
2023-02-22T00:47:37.987Z,17.40
2023-02-22T00:50:06.500Z,17.30
2023-02-22T00:52:36.017Z,18.40
2023-02-22T00:55:05.969Z,16.83
2023-02-22T00:57:35.609Z,17.33
2023-02-22T01:00:11.869Z,17.53
2023-02-22T01:02:39.800Z,15.93
2023-02-22T01:05:09.042Z,17.37
2023-02-22T01:07:36.837Z,17.50
2023-02-22T01:10:04.989Z,17.53
2023-02-22T01:12:33.117Z,17.53
2023-02-22T01:15:03.823Z,16.63
2023-02-22T01:17:32.687Z,17.00
2023-02-22T01:20:00.609Z,19.00
2023-02-22T01:22:28.496Z,16.80
2023-02-22T01:24:56.457Z,17.50
2023-02-22T01:27:24.167Z,17.83
2023-02-22T01:29:51.904Z,16.43
2023-02-22T01:32:21.306Z,16.10
2023-02-22T01:34:49.073Z,16.53
2023-02-22T01:37:17.029Z,16.20
2023-02-22T01:39:44.744Z,15.63
2023-02-22T01:42:13.603Z,16.23
2023-02-22T01:44:41.524Z,15.47
2023-02-22T01:47:14.349Z,15.17
2023-02-22T01:49:45.221Z,12.27
2023-02-22T01:52:15.399Z,14.43
2023-02-22T01:54:45.478Z,14.40
2023-02-22T01:57:15.984Z,14.70
2023-02-22T01:59:44.726Z,14.33
2023-02-22T02:02:13.071Z,15.80
2023-02-22T02:04:42.654Z,13.47
2023-02-22T02:07:14.163Z,15.00
2023-02-22T02:09:45.622Z,15.53
2023-02-22T02:12:13.879Z,14.20
2023-02-22T02:14:42.037Z,14.53
2023-02-22T02:17:10.323Z,14.33
2023-02-22T02:19:42.887Z,13.17
2023-02-22T02:22:31.036Z,13.50
2023-02-22T02:25:44.401Z,13.37
2023-02-22T02:28:56.523Z,11.73
2023-02-22T02:31:57.615Z,12.53
2023-02-22T02:34:29.080Z,12.03
2023-02-22T02:36:59.084Z,12.97
2023-02-22T02:39:28.425Z,13.53
2023-02-22T02:41:56.407Z,12.77
2023-02-22T02:44:26.313Z,13.83
2023-02-22T02:46:57.606Z,13.60
2023-02-22T02:49:28.693Z,13.37
2023-02-22T02:51:56.977Z,12.83
2023-02-22T02:54:24.732Z,13.63
2023-02-22T02:56:52.619Z,13.43
2023-02-22T02:59:25.539Z,15.43
2023-02-22T03:02:00.593Z,13.23
2023-02-22T03:05:00.089Z,14.67
2023-02-22T03:07:48.078Z,13.30
2023-02-22T03:10:26.264Z,13.27
2023-02-22T03:12:59.763Z,13.57
2023-02-22T03:15:36.254Z,12.27
2023-02-22T03:18:06.714Z,12.67
2023-02-22T03:20:44.327Z,13.57
2023-02-22T03:23:14.709Z,12.63
2023-02-22T03:25:44.844Z,13.47
2023-02-22T03:28:15.153Z,12.80
2023-02-22T03:30:45.252Z,13.33
2023-02-22T03:33:20.383Z,12.97
2023-02-22T03:35:56.784Z,12.30
2023-02-22T03:38:25.393Z,13.10
2023-02-22T03:40:54.399Z,13.70
2023-02-22T03:43:24.944Z,12.33
2023-02-22T03:45:52.998Z,11.73
2023-02-22T03:48:22.799Z,12.00
2023-02-22T03:50:52.055Z,11.47
2023-02-22T03:53:20.079Z,11.53
2023-02-22T03:55:48.007Z,12.40
2023-02-22T03:58:15.852Z,12.13
2023-02-22T04:00:44.522Z,11.73
2023-02-22T04:03:12.659Z,11.67
2023-02-22T04:05:40.626Z,12.60
2023-02-22T04:08:09.761Z,12.03
2023-02-22T04:10:37.906Z,12.33
2023-02-22T04:13:07.002Z,12.17
2023-02-22T04:15:34.692Z,13.00
2023-02-22T04:18:02.580Z,12.60
2023-02-22T04:20:31.834Z,13.10
2023-02-22T04:22:59.717Z,13.90
2023-02-22T04:25:28.814Z,12.93
2023-02-22T04:27:56.510Z,13.47
2023-02-22T04:30:24.349Z,12.67
2023-02-22T04:32:52.458Z,12.80
2023-02-22T04:35:20.343Z,12.03
2023-02-22T04:37:48.068Z,12.57
2023-02-22T04:40:19.434Z,12.43
2023-02-22T04:42:48.655Z,10.33
2023-02-22T04:45:16.409Z,12.00
2023-02-22T04:47:44.243Z,13.57
2023-02-22T04:50:12.443Z,13.23
2023-02-22T04:52:40.151Z,12.37
2023-02-22T04:55:08.371Z,12.43
2023-02-22T04:57:36.136Z,11.43
2023-02-22T05:00:05.859Z,12.63
2023-02-22T05:02:33.641Z,11.80
2023-02-22T05:05:01.708Z,11.63
2023-02-22T05:07:29.983Z,11.90
2023-02-22T05:09:57.864Z,13.30
2023-02-22T05:12:28.010Z,12.10
2023-02-22T05:14:56.453Z,12.90
2023-02-22T05:17:25.551Z,11.70
2023-02-22T05:19:56.367Z,12.37
2023-02-22T05:22:27.798Z,11.30
2023-02-22T05:24:56.858Z,12.10
2023-02-22T05:27:24.798Z,13.47
2023-02-22T05:29:59.002Z,12.80
2023-02-22T05:32:28.601Z,12.13
2023-02-22T05:34:56.478Z,11.97
2023-02-22T05:37:24.223Z,12.10
2023-02-22T05:39:52.144Z,12.37
2023-02-22T05:42:26.638Z,13.17
2023-02-22T05:44:54.943Z,12.47
2023-02-22T05:47:22.707Z,11.97
2023-02-22T05:49:53.795Z,13.00
2023-02-22T05:52:22.698Z,13.30
2023-02-22T05:54:50.775Z,13.57
2023-02-22T05:57:18.563Z,13.73
2023-02-22T05:59:46.304Z,12.50
2023-02-22T06:02:14.124Z,11.90
2023-02-22T06:04:42.105Z,13.40
2023-02-22T06:07:12.482Z,12.47
2023-02-22T06:09:40.463Z,12.83
2023-02-22T06:12:10.988Z,13.03
2023-02-22T06:14:40.976Z,13.47
2023-02-22T06:17:10.855Z,12.73
2023-02-22T06:19:38.968Z,12.83
2023-02-22T06:22:08.116Z,13.33
2023-02-22T06:24:39.317Z,13.80
2023-02-22T06:29:45.321Z,13.27
2023-02-22T06:32:13.154Z,13.17
2023-02-22T06:34:42.423Z,14.30
2023-02-22T06:37:10.256Z,12.93
2023-02-22T06:39:39.640Z,13.07
2023-02-22T06:42:07.780Z,23.10
2023-02-22T06:44:35.562Z,14.20
2023-02-22T06:47:03.221Z,13.17
2023-02-22T06:49:33.458Z,13.37
2023-02-22T06:52:01.105Z,13.07
2023-02-22T06:54:29.115Z,14.07
2023-02-22T06:56:58.486Z,13.10
2023-02-22T06:59:28.123Z,13.60
2023-02-22T07:01:56.022Z,13.33
2023-02-22T07:04:26.998Z,14.63
2023-02-22T07:06:54.708Z,13.40
2023-02-22T07:09:22.551Z,13.80
2023-02-22T07:11:50.253Z,13.00
2023-02-22T07:14:19.477Z,14.07
2023-02-22T07:16:47.238Z,13.37
2023-02-22T07:19:14.947Z,14.80
2023-02-22T07:21:42.594Z,17.43
2023-02-22T07:24:10.368Z,14.07
2023-02-22T07:26:40.046Z,14.13
2023-02-22T07:29:07.772Z,15.23
2023-02-22T07:31:37.919Z,13.20
2023-02-22T07:34:05.621Z,13.90
2023-02-22T07:36:33.455Z,12.67
2023-02-22T07:39:01.140Z,13.33
2023-02-22T07:41:28.935Z,18.00
2023-02-22T07:43:56.620Z,12.73
2023-02-22T07:46:24.320Z,13.10
2023-02-22T07:48:53.575Z,12.97
2023-02-22T07:51:21.423Z,13.17
2023-02-22T07:53:49.726Z,12.40
2023-02-22T07:56:18.176Z,13.70
2023-02-22T07:58:45.901Z,13.63
2023-02-22T08:01:14.299Z,12.50
2023-02-22T08:03:42.574Z,13.70
2023-02-22T08:06:11.865Z,13.83
2023-02-22T08:08:42.749Z,13.87
2023-02-22T08:11:10.500Z,14.20
2023-02-22T08:13:38.279Z,14.63
2023-02-22T08:16:06.436Z,13.93
2023-02-22T08:18:34.090Z,15.33
2023-02-22T08:21:01.820Z,15.03
2023-02-22T08:23:31.633Z,14.70
2023-02-22T08:26:04.515Z,15.23
2023-02-22T08:28:32.207Z,15.20
2023-02-22T08:31:00.028Z,16.93
2023-02-22T08:33:27.816Z,15.20
2023-02-22T08:35:56.842Z,15.20
2023-02-22T08:38:26.594Z,14.70
2023-02-22T08:40:57.293Z,15.50
2023-02-22T08:43:25.829Z,14.33
2023-02-22T08:45:56.882Z,16.40
2023-02-22T08:48:26.652Z,15.80
2023-02-22T09:03:00.302Z,18.23
2023-02-22T09:14:46.193Z,18.95
2023-02-22T09:17:38.900Z,18.00
2023-02-22T09:20:18.220Z,17.50
2023-02-22T09:22:46.234Z,19.63
2023-02-22T09:25:16.953Z,20.92
2023-02-22T09:27:51.189Z,17.95
2023-02-22T09:31:11.185Z,17.75
2023-02-22T10:26:15.010Z,8.88
2023-02-22T10:49:11.972Z,5.88
2023-02-22T11:29:57.925Z,5.68
2023-02-22T11:51:59.227Z,5.43
2023-02-22T11:54:40.152Z,5.75
2023-02-22T11:57:25.509Z,5.13
2023-02-22T12:00:00.978Z,5.38
2023-02-22T12:02:34.105Z,4.88
2023-02-22T12:05:18.632Z,5.47
2023-02-22T12:07:56.573Z,5.45
2023-02-22T12:10:30.150Z,5.68
2023-02-22T12:13:09.644Z,5.30
2023-02-22T12:15:39.957Z,5.55
2023-02-22T12:18:10.376Z,5.38
2023-02-22T12:20:39.908Z,6.22
2023-02-22T12:23:19.640Z,5.63
2023-02-22T12:26:00.375Z,5.25
2023-02-22T12:28:31.745Z,5.15
2023-02-22T12:31:06.522Z,5.88
2023-02-22T12:33:42.564Z,6.00
2023-02-22T12:36:10.647Z,5.50
2023-02-22T12:38:41.445Z,6.13
2023-02-22T12:41:17.725Z,5.82
2023-02-22T12:43:47.327Z,5.65
2023-02-22T12:46:18.054Z,5.72
2023-02-22T12:48:48.621Z,5.90
2023-02-22T12:51:26.085Z,5.65
2023-02-22T12:53:57.712Z,5.68
2023-02-22T12:56:27.388Z,5.85
2023-02-22T12:58:58.773Z,5.90
2023-02-22T13:01:30.014Z,5.65
2023-02-22T13:03:57.831Z,5.78
2023-02-22T13:06:30.723Z,5.45
2023-02-22T13:09:09.596Z,6.28
2023-02-22T13:11:40.190Z,6.32
2023-02-22T13:14:15.629Z,6.20
2023-02-22T13:16:52.537Z,5.57
2023-02-22T13:19:28.146Z,5.85
2023-02-22T13:21:58.273Z,6.07
2023-02-22T13:24:30.319Z,6.38
2023-02-22T13:27:00.563Z,6.40
2023-02-22T13:29:29.755Z,6.25
2023-02-22T13:32:15.612Z,6.35
2023-02-22T13:35:02.187Z,6.68
2023-02-22T13:37:42.414Z,5.93
2023-02-22T13:40:27.504Z,5.95
2023-02-22T13:43:11.526Z,6.78
2023-02-22T13:45:49.594Z,6.13
2023-02-22T13:48:32.728Z,6.45
2023-02-22T13:51:12.160Z,6.38
2023-02-22T13:53:44.640Z,6.05
2023-02-22T13:56:13.946Z,6.07
2023-02-22T13:58:49.964Z,6.20
2023-02-22T14:01:39.971Z,5.50
2023-02-22T14:04:24.125Z,5.28
2023-02-22T14:06:53.022Z,5.15
2023-02-22T14:09:47.977Z,5.45
2023-02-22T14:16:20.320Z,4.90
2023-02-22T14:18:50.421Z,5.80
2023-02-22T14:21:19.303Z,6.10
2023-02-22T14:23:47.366Z,5.03
2023-02-22T14:28:53.389Z,4.80
2023-02-22T14:31:35.627Z,5.57
2023-02-22T14:34:17.322Z,5.60
2023-02-22T14:37:14.847Z,5.43
2023-02-22T14:39:46.056Z,6.05
2023-02-22T14:42:15.318Z,5.90
2023-02-22T14:44:45.268Z,5.80
2023-02-22T14:47:21.254Z,5.38
2023-02-22T14:49:51.731Z,5.95
2023-02-22T14:52:22.861Z,6.13
2023-02-22T14:55:04.590Z,5.68
2023-02-22T14:57:39.031Z,6.53
2023-02-22T15:00:19.755Z,7.15
2023-02-22T15:02:49.474Z,6.90
2023-02-22T15:05:19.479Z,6.37
2023-02-22T15:07:55.559Z,6.67
2023-02-22T15:10:26.477Z,6.70
2023-02-22T15:13:10.489Z,7.10
2023-02-22T15:15:40.644Z,7.07
2023-02-22T15:18:18.020Z,7.40
2023-02-22T15:20:48.333Z,8.30
2023-02-22T15:23:21.747Z,7.60
2023-02-22T15:25:50.039Z,7.57
2023-02-22T15:28:19.164Z,7.47
2023-02-22T15:31:13.384Z,7.57
2023-02-22T15:33:42.926Z,7.00
2023-02-22T15:36:18.606Z,7.60
2023-02-22T15:39:13.393Z,7.27
2023-02-22T15:41:41.224Z,7.93
2023-02-22T15:44:23.665Z,7.23
2023-02-22T15:47:11.808Z,7.60
2023-02-22T15:49:41.783Z,7.40
2023-02-22T15:55:29.904Z,7.80
2023-02-22T15:58:03.773Z,7.23
2023-02-22T16:00:46.201Z,9.23
2023-02-22T16:03:19.642Z,10.73
2023-02-22T16:06:33.104Z,9.30
2023-02-22T16:09:02.860Z,9.63
2023-02-22T16:15:35.709Z,8.27
2023-02-22T16:18:49.880Z,8.43
2023-02-22T16:21:19.259Z,8.37
2023-02-22T16:23:51.660Z,8.43
2023-02-22T16:26:26.479Z,8.63
2023-02-22T16:32:25.295Z,9.03
2023-02-22T16:34:53.267Z,9.93
2023-02-22T16:37:23.219Z,8.50
2023-02-22T16:39:57.622Z,8.60
2023-02-22T16:42:41.216Z,8.03
2023-02-22T16:48:14.597Z,8.03
2023-02-22T16:50:42.809Z,7.43
2023-02-22T16:53:15.168Z,8.00
2023-02-22T16:55:45.573Z,7.90
2023-02-22T16:58:15.397Z,10.93
2023-02-22T17:00:46.114Z,10.43
2023-02-22T17:04:18.007Z,11.73
2023-02-22T17:06:45.829Z,10.90
2023-02-22T17:09:15.291Z,9.90
2023-02-22T17:11:43.521Z,9.97
2023-02-22T17:14:13.232Z,11.30
2023-02-22T17:16:41.003Z,10.30
2023-02-22T17:19:16.930Z,10.87
2023-02-22T17:21:44.749Z,11.47
2023-02-22T17:24:13.678Z,10.00
2023-02-22T17:26:53.438Z,10.87
2023-02-22T17:29:29.128Z,12.33
2023-02-22T17:31:57.403Z,11.83
2023-02-22T17:34:28.109Z,12.23
2023-02-22T17:37:01.495Z,11.37
2023-02-22T17:39:29.534Z,16.73
2023-02-22T17:41:58.328Z,12.50
2023-02-22T17:44:30.631Z,11.70
2023-02-22T17:47:04.745Z,12.00
2023-02-22T17:54:54.722Z,12.87
2023-02-22T17:57:22.522Z,11.87
2023-02-22T17:59:51.695Z,12.20
2023-02-22T18:02:19.661Z,11.97
2023-02-22T18:04:47.483Z,12.57
2023-02-22T18:07:19.105Z,12.60
2023-02-22T18:09:46.915Z,12.87
2023-02-22T18:12:14.626Z,11.93
2023-02-22T18:14:42.365Z,12.27
2023-02-22T18:17:11.496Z,13.17
2023-02-22T18:19:39.419Z,12.97
2023-02-22T18:22:08.373Z,13.80
2023-02-22T18:24:36.113Z,12.63
2023-02-22T18:27:06.533Z,13.07
2023-02-22T18:29:34.492Z,13.83
2023-02-22T18:32:02.242Z,13.57
2023-02-22T18:34:33.002Z,13.60
2023-02-22T18:37:00.994Z,13.97
2023-02-22T18:39:31.874Z,13.37
2023-02-22T18:41:59.756Z,13.47
2023-02-22T18:44:27.646Z,13.73
2023-02-22T18:46:55.444Z,14.53
2023-02-22T18:49:23.623Z,14.03
2023-02-22T18:51:52.757Z,14.23
2023-02-22T18:54:20.770Z,15.33
2023-02-22T18:56:48.471Z,15.40
2023-02-22T18:59:16.320Z,15.53
2023-02-22T19:01:49.069Z,16.37
2023-02-22T19:04:18.265Z,15.70
2023-02-22T19:06:48.415Z,15.77
2023-02-22T19:09:17.558Z,16.30
2023-02-22T19:11:48.235Z,16.40
2023-02-22T19:14:17.311Z,16.33
2023-02-22T19:16:46.387Z,15.40
2023-02-22T19:19:14.814Z,16.40
2023-02-22T19:21:43.772Z,16.00
2023-02-22T19:24:11.444Z,15.10
2023-02-22T19:26:49.444Z,16.60
2023-02-22T19:29:17.310Z,16.43
2023-02-22T19:31:47.645Z,15.83
2023-02-22T19:34:15.533Z,15.97
2023-02-22T19:36:45.383Z,16.17
2023-02-22T19:39:13.076Z,18.10
2023-02-22T19:41:42.517Z,16.10
2023-02-22T19:44:10.324Z,16.93
2023-02-22T19:46:38.206Z,16.57
2023-02-22T19:49:06.146Z,18.93
2023-02-22T19:51:34.224Z,17.90
2023-02-22T19:54:03.149Z,18.67
2023-02-22T19:56:31.296Z,18.00
2023-02-22T19:59:02.401Z,19.03
2023-02-22T20:01:32.825Z,18.93
2023-02-22T20:04:04.270Z,19.43
2023-02-22T20:06:35.076Z,20.23
2023-02-22T20:09:02.937Z,19.97
2023-02-22T20:11:32.947Z,20.97
2023-02-22T20:14:02.035Z,19.57
2023-02-22T20:16:30.029Z,20.93
2023-02-22T20:18:57.900Z,19.60
2023-02-22T20:21:27.991Z,20.23
2023-02-22T20:23:57.180Z,23.77
2023-02-22T20:26:25.820Z,23.70
2023-02-22T20:28:53.798Z,22.73
2023-02-22T20:31:23.123Z,22.60
2023-02-22T20:33:58.215Z,21.93
2023-02-22T20:36:26.075Z,21.83
2023-02-22T20:38:54.869Z,22.47
2023-02-22T20:41:23.999Z,21.50
2023-02-22T20:43:51.774Z,21.80
2023-02-22T20:46:19.552Z,22.47
2023-02-22T20:48:48.578Z,22.80
2023-02-22T20:51:16.889Z,23.27
2023-02-22T20:53:45.038Z,22.47
2023-02-22T20:56:13.553Z,22.83
2023-02-22T20:58:41.244Z,22.43
2023-02-22T21:01:11.937Z,23.23
2023-02-22T21:03:40.700Z,22.73
2023-02-22T21:06:11.724Z,23.77
2023-02-22T21:08:39.485Z,23.40
2023-02-22T21:11:11.400Z,25.33
2023-02-22T21:13:39.083Z,23.73
2023-02-22T21:16:07.744Z,24.13
2023-02-22T21:18:35.462Z,24.90
2023-02-22T21:21:03.458Z,24.80
2023-02-22T21:23:32.496Z,25.37
2023-02-22T21:26:00.233Z,25.80
2023-02-22T21:28:42.567Z,26.80
2023-02-22T21:31:15.836Z,27.47
2023-02-22T21:33:43.686Z,27.73
2023-02-22T21:36:16.829Z,27.70
2023-02-22T21:38:46.972Z,28.80
2023-02-22T21:41:15.309Z,29.97
2023-02-22T21:43:43.172Z,29.20
2023-02-22T21:46:12.028Z,30.33
2023-02-22T21:48:44.431Z,29.50
2023-02-22T21:51:13.836Z,29.17
2023-02-22T21:53:50.581Z,29.30
2023-02-22T21:56:22.051Z,31.17
2023-02-22T21:58:58.930Z,30.93
2023-02-22T22:01:28.315Z,29.13
2023-02-22T22:03:56.479Z,30.50
2023-02-22T22:06:24.801Z,30.53
2023-02-22T22:08:54.141Z,30.47
2023-02-22T22:11:22.073Z,31.90
2023-02-22T22:13:50.680Z,30.63
2023-02-22T22:16:20.540Z,31.60
2023-02-22T22:18:48.334Z,31.63
2023-02-22T22:21:18.005Z,32.67
2023-02-22T22:23:47.237Z,32.67
2023-02-22T22:26:18.342Z,33.40
2023-02-22T22:28:47.125Z,32.93
2023-02-22T22:31:17.132Z,35.03
2023-02-22T22:33:45.544Z,33.30
2023-02-22T22:36:14.912Z,31.77
2023-02-22T22:38:43.033Z,34.33
2023-02-22T22:41:13.163Z,35.53
2023-02-22T22:43:45.949Z,35.17
2023-02-22T22:46:14.439Z,34.70
2023-02-22T22:48:42.356Z,34.73
2023-02-22T22:51:11.070Z,34.33
2023-02-22T22:53:42.873Z,34.87
2023-02-22T22:56:14.227Z,33.77
2023-02-22T22:58:43.941Z,34.53
2023-02-22T23:01:18.348Z,33.73
2023-02-22T23:03:55.219Z,35.57
2023-02-22T23:06:25.628Z,36.20
2023-02-22T23:09:01.008Z,36.40
2023-02-22T23:11:29.702Z,36.40
2023-02-22T23:14:00.141Z,37.77
2023-02-22T23:16:28.741Z,34.83
2023-02-22T23:18:56.522Z,36.83
2023-02-22T23:21:24.341Z,34.83
2023-02-22T23:23:53.299Z,35.97
2023-02-22T23:26:21.018Z,36.93
2023-02-22T23:28:49.034Z,36.60
2023-02-22T23:31:18.572Z,37.80
2023-02-22T23:33:48.237Z,37.27
2023-02-22T23:36:16.268Z,37.43
2023-02-22T23:38:44.016Z,39.63
2023-02-22T23:41:16.375Z,38.47
2023-02-22T23:43:45.053Z,38.83
2023-02-22T23:46:13.805Z,39.63
2023-02-22T23:48:46.594Z,38.87
2023-02-22T23:51:15.148Z,37.77
2023-02-22T23:53:45.894Z,37.70
2023-02-22T23:56:13.742Z,37.70
2023-02-22T23:58:42.027Z,39.17
